createdAt,value
2019-05-20T00:01:19.467Z,12.90
2019-05-20T00:03:46.131Z,12.90
2019-05-20T00:06:12.744Z,12.90
2019-05-20T00:08:39.338Z,12.90
2019-05-20T00:11:05.883Z,12.90
2019-05-20T00:13:32.417Z,12.90
2019-05-20T00:15:58.954Z,12.90
2019-05-20T00:18:25.496Z,12.90
2019-05-20T00:20:52.028Z,12.90
2019-05-20T00:23:18.564Z,12.90
2019-05-20T00:25:45.186Z,12.90
2019-05-20T00:28:11.729Z,12.90
2019-05-20T00:30:38.285Z,12.90
2019-05-20T00:33:04.818Z,12.90
2019-05-20T00:35:31.359Z,12.90
2019-05-20T00:37:57.909Z,12.90
2019-05-20T00:40:24.438Z,12.80
2019-05-20T00:42:51.088Z,12.90
2019-05-20T00:45:17.620Z,12.90
2019-05-20T00:47:44.221Z,12.90
2019-05-20T00:50:11.063Z,12.90
2019-05-20T00:52:37.586Z,12.90
2019-05-20T00:55:06.357Z,12.80
2019-05-20T00:57:32.891Z,12.90
2019-05-20T00:59:59.479Z,12.90
2019-05-20T01:02:26.027Z,12.90
2019-05-20T01:04:52.664Z,12.90
2019-05-20T01:07:19.184Z,12.90
2019-05-20T01:09:45.729Z,12.90
2019-05-20T01:12:12.334Z,12.90
2019-05-20T01:14:39.055Z,12.90
2019-05-20T01:17:05.719Z,12.90
2019-05-20T01:19:32.289Z,12.90
2019-05-20T01:21:58.796Z,12.90
2019-05-20T01:24:25.420Z,12.90
2019-05-20T01:26:52.062Z,12.90
2019-05-20T01:29:18.595Z,12.90
2019-05-20T01:31:45.130Z,12.90
2019-05-20T01:34:11.682Z,12.80
2019-05-20T01:36:38.300Z,12.90
2019-05-20T01:39:05.743Z,12.90
2019-05-20T01:41:32.488Z,12.90
2019-05-20T01:43:59.017Z,12.80
2019-05-20T01:46:25.533Z,12.80
2019-05-20T01:48:52.130Z,12.90
2019-05-20T01:51:18.764Z,12.80
2019-05-20T01:53:45.305Z,12.80
2019-05-20T01:56:11.901Z,12.80
2019-05-20T01:58:39.663Z,12.80
2019-05-20T02:01:06.566Z,12.80
2019-05-20T02:03:34.082Z,12.70
2019-05-20T02:06:00.627Z,12.70
2019-05-20T02:08:27.255Z,12.60
2019-05-20T02:10:56.543Z,12.60
2019-05-20T02:13:24.124Z,12.50
2019-05-20T02:16:03.705Z,12.50
2019-05-20T02:18:30.274Z,12.50
2019-05-20T02:20:56.812Z,12.40
2019-05-20T02:23:23.330Z,12.30
2019-05-20T02:25:49.864Z,12.30
2019-05-20T02:28:16.477Z,12.20
2019-05-20T02:30:43.015Z,12.10
2019-05-20T02:33:09.931Z,12.10
2019-05-20T02:35:36.562Z,12.00
2019-05-20T02:38:03.097Z,12.00
2019-05-20T02:40:29.640Z,12.00
2019-05-20T02:42:56.466Z,12.00
2019-05-20T02:45:23.116Z,12.00
2019-05-20T02:47:49.640Z,11.90
2019-05-20T02:50:16.325Z,11.90
2019-05-20T02:52:42.883Z,11.90
2019-05-20T02:55:09.616Z,11.90
2019-05-20T02:57:36.145Z,11.90
2019-05-20T03:00:05.482Z,11.90
2019-05-20T03:02:32.063Z,11.90
2019-05-20T03:04:58.582Z,11.90
2019-05-20T03:07:25.098Z,12.00
2019-05-20T03:09:51.658Z,12.00
2019-05-20T03:12:18.197Z,12.00
2019-05-20T03:14:44.719Z,12.00
2019-05-20T03:17:11.307Z,12.00
2019-05-20T03:19:37.840Z,12.00
2019-05-20T03:22:04.484Z,12.00
2019-05-20T03:24:31.029Z,12.00
2019-05-20T03:26:57.571Z,12.00
2019-05-20T03:29:24.168Z,12.00
2019-05-20T03:31:50.780Z,12.00
2019-05-20T03:34:42.340Z,12.00
2019-05-20T03:36:45.796Z,12.00
2019-05-20T03:39:13.400Z,12.00
2019-05-20T03:41:39.918Z,12.00
2019-05-20T03:44:06.449Z,12.00
2019-05-20T03:46:32.968Z,12.00
2019-05-20T03:48:59.534Z,12.00
2019-05-20T03:51:26.068Z,12.00
2019-05-20T03:53:52.601Z,12.00
2019-05-20T03:56:19.139Z,12.00
2019-05-20T03:58:45.656Z,12.00
2019-05-20T04:01:12.271Z,12.00
2019-05-20T04:03:38.846Z,12.00
2019-05-20T04:06:05.494Z,12.00
2019-05-20T04:08:31.998Z,11.90
2019-05-20T04:10:58.539Z,12.00
2019-05-20T04:13:25.158Z,12.00
2019-05-20T04:15:51.726Z,12.00
2019-05-20T04:18:18.238Z,12.00
2019-05-20T04:20:44.772Z,12.00
2019-05-20T04:23:11.302Z,12.00
2019-05-20T04:25:37.868Z,12.00
2019-05-20T04:28:04.418Z,12.00
2019-05-20T04:30:30.955Z,12.10
2019-05-20T04:32:57.482Z,12.00
2019-05-20T04:35:24.022Z,12.00
2019-05-20T04:37:50.640Z,12.00
2019-05-20T04:40:17.394Z,12.00
2019-05-20T04:42:43.929Z,12.00
2019-05-20T04:45:11.462Z,12.10
2019-05-20T04:47:38.116Z,12.10
2019-05-20T04:50:07.590Z,12.10
2019-05-20T04:52:34.125Z,12.10
2019-05-20T04:55:00.678Z,12.10
2019-05-20T04:57:27.181Z,12.10
2019-05-20T04:59:53.724Z,12.20
2019-05-20T05:02:20.255Z,12.20
2019-05-20T05:04:46.818Z,12.20
2019-05-20T05:07:13.359Z,12.20
2019-05-20T05:09:39.894Z,12.30
2019-05-20T05:12:06.445Z,12.20
2019-05-20T05:14:33.138Z,12.30
2019-05-20T05:16:59.818Z,12.30
2019-05-20T05:19:26.673Z,12.30
2019-05-20T05:21:53.292Z,12.30
2019-05-20T05:24:19.920Z,12.30
2019-05-20T05:26:47.972Z,12.30
2019-05-20T05:29:14.603Z,12.30
2019-05-20T05:31:41.645Z,12.40
2019-05-20T05:34:08.177Z,12.40
2019-05-20T05:36:34.703Z,12.40
2019-05-20T05:39:01.223Z,12.40
2019-05-20T05:41:27.735Z,12.40
2019-05-20T05:43:54.282Z,12.40
2019-05-20T05:46:20.795Z,12.40
2019-05-20T05:48:47.333Z,12.40
2019-05-20T05:51:13.848Z,12.40
2019-05-20T05:53:40.376Z,12.40
2019-05-20T05:56:06.929Z,12.40
2019-05-20T05:58:33.457Z,12.40
2019-05-20T06:00:59.988Z,12.40
2019-05-20T06:03:26.528Z,12.40
2019-05-20T06:06:10.280Z,12.40
2019-05-20T06:08:21.498Z,12.40
2019-05-20T06:10:48.020Z,12.40
2019-05-20T06:13:14.655Z,12.40
2019-05-20T06:15:41.190Z,12.30
2019-05-20T06:18:07.720Z,12.30
2019-05-20T06:20:34.304Z,12.30
2019-05-20T06:23:00.844Z,12.30
2019-05-20T06:25:27.389Z,12.30
2019-05-20T06:27:54.351Z,12.20
2019-05-20T06:30:35.017Z,12.20
2019-05-20T06:33:03.012Z,12.20
2019-05-20T06:35:29.642Z,12.20
2019-05-20T06:37:58.277Z,12.30
2019-05-20T06:40:24.834Z,12.30
2019-05-20T06:42:51.394Z,12.40
2019-05-20T06:45:17.923Z,12.40
2019-05-20T06:47:44.538Z,12.40
2019-05-20T06:50:11.070Z,12.40
2019-05-20T06:52:37.609Z,12.40
2019-05-20T06:55:06.571Z,12.40
2019-05-20T06:57:33.185Z,12.40
2019-05-20T06:59:59.716Z,12.40
2019-05-20T07:02:26.256Z,12.50
2019-05-20T07:04:54.486Z,12.50
2019-05-20T07:07:21.573Z,12.50
2019-05-20T07:09:48.228Z,12.50
2019-05-20T07:12:14.758Z,12.60
2019-05-20T07:14:41.337Z,12.60
2019-05-20T07:17:07.876Z,12.60
2019-05-20T07:19:34.521Z,12.70
2019-05-20T07:22:01.040Z,12.90
2019-05-20T07:24:27.594Z,12.90
2019-05-20T07:30:07.318Z,13.00
2019-05-20T07:32:33.939Z,13.10
2019-05-20T07:35:06.019Z,13.20
2019-05-20T07:37:32.944Z,13.20
2019-05-20T07:39:59.661Z,13.30
2019-05-20T07:42:26.179Z,13.30
2019-05-20T07:44:52.709Z,13.40
2019-05-20T07:47:19.440Z,13.50
2019-05-20T07:49:51.625Z,13.60
2019-05-20T07:52:18.848Z,13.60
2019-05-20T07:54:47.001Z,13.60
2019-05-20T07:57:16.318Z,13.50
2019-05-20T07:59:44.742Z,13.50
2019-05-20T08:02:17.575Z,13.50
2019-05-20T08:04:44.133Z,13.50
2019-05-20T08:07:26.866Z,13.60
2019-05-20T08:09:45.349Z,13.70
2019-05-20T08:12:07.517Z,13.80
2019-05-20T08:14:34.099Z,13.90
2019-05-20T08:17:00.667Z,14.00
2019-05-20T08:19:27.194Z,14.10
2019-05-20T08:21:54.119Z,14.30
2019-05-20T08:24:20.647Z,14.40
2019-05-20T08:26:48.482Z,14.60
2019-05-20T08:29:15.038Z,14.60
2019-05-20T08:31:41.593Z,14.60
2019-05-20T08:34:08.101Z,14.60
2019-05-20T08:36:34.636Z,14.70
2019-05-20T08:39:01.192Z,14.60
2019-05-20T08:41:27.792Z,14.60
2019-05-20T08:43:54.414Z,14.70
2019-05-20T08:46:21.016Z,14.80
2019-05-20T08:48:47.526Z,14.80
2019-05-20T08:51:18.121Z,14.80
2019-05-20T08:53:44.643Z,14.70
2019-05-20T08:56:11.261Z,14.60
2019-05-20T08:58:37.900Z,14.60
2019-05-20T09:01:04.502Z,14.60
2019-05-20T09:03:31.050Z,14.50
2019-05-20T09:05:57.641Z,14.40
2019-05-20T09:08:24.162Z,14.30
2019-05-20T09:10:50.703Z,14.10
2019-05-20T09:13:17.219Z,14.00
2019-05-20T09:15:45.483Z,13.90
2019-05-20T09:18:12.175Z,13.80
2019-05-20T09:20:38.745Z,13.80
2019-05-20T09:23:05.331Z,13.80
2019-05-20T09:25:32.082Z,13.70
2019-05-20T09:27:59.897Z,13.60
2019-05-20T09:30:26.449Z,13.60
2019-05-20T09:32:54.178Z,13.50
2019-05-20T09:35:20.811Z,13.40
2019-05-20T09:37:47.340Z,13.40
2019-05-20T09:40:38.246Z,13.30
2019-05-20T09:43:05.534Z,13.30
2019-05-20T09:45:32.474Z,13.20
2019-05-20T09:47:59.056Z,13.20
2019-05-20T09:50:25.602Z,13.20
2019-05-20T09:52:52.126Z,13.10
2019-05-20T09:55:18.658Z,13.10
2019-05-20T09:57:46.206Z,13.00
2019-05-20T10:00:12.876Z,13.00
2019-05-20T10:02:39.420Z,13.00
2019-05-20T10:05:06.137Z,13.00
2019-05-20T10:07:32.668Z,13.10
2019-05-20T10:09:59.186Z,13.20
2019-05-20T10:12:44.251Z,13.20
2019-05-20T10:14:54.156Z,13.30
2019-05-20T10:17:20.743Z,13.30
2019-05-20T10:19:47.262Z,13.40
2019-05-20T10:22:13.842Z,13.40
2019-05-20T10:24:40.506Z,13.40
2019-05-20T10:27:07.103Z,13.50
2019-05-20T10:29:33.630Z,13.60
2019-05-20T10:32:00.262Z,13.70
2019-05-20T10:34:26.764Z,14.00
2019-05-20T10:36:53.296Z,14.30
2019-05-20T10:39:19.810Z,14.40
2019-05-20T10:41:47.344Z,14.40
2019-05-20T10:44:13.863Z,14.30
2019-05-20T10:46:40.396Z,14.30
2019-05-20T10:49:06.918Z,14.10
2019-05-20T10:51:35.486Z,14.00
2019-05-20T10:54:02.028Z,13.80
2019-05-20T10:56:28.572Z,13.70
2019-05-20T10:58:56.310Z,13.60
2019-05-20T11:01:22.845Z,13.50
2019-05-20T11:03:49.380Z,13.40
2019-05-20T11:06:15.900Z,13.30
2019-05-20T11:08:42.430Z,13.20
2019-05-20T11:11:13.815Z,13.10
2019-05-20T11:13:38.509Z,13.10
2019-05-20T11:16:05.048Z,13.00
2019-05-20T11:18:31.580Z,13.00
2019-05-20T11:20:58.123Z,13.00
2019-05-20T11:23:24.653Z,12.90
2019-05-20T11:25:51.176Z,12.90
2019-05-20T11:28:17.711Z,12.80
2019-05-20T11:30:44.264Z,12.90
2019-05-20T11:33:11.276Z,12.80
2019-05-20T11:35:37.798Z,12.90
2019-05-20T11:38:04.410Z,12.90
2019-05-20T11:40:30.899Z,12.90
2019-05-20T11:42:57.436Z,12.90
2019-05-20T11:45:24.038Z,12.90
2019-05-20T11:47:50.582Z,13.00
2019-05-20T11:50:17.277Z,13.00
2019-05-20T11:52:43.998Z,13.00
2019-05-20T11:55:10.788Z,13.00
2019-05-20T11:57:37.625Z,13.00
2019-05-20T12:00:11.491Z,13.00
2019-05-20T12:02:38.035Z,13.10
2019-05-20T12:05:05.974Z,13.10
2019-05-20T12:07:32.507Z,13.20
2019-05-20T12:09:59.061Z,13.20
2019-05-20T12:12:25.577Z,13.30
2019-05-20T12:14:52.101Z,13.30
2019-05-20T12:17:18.629Z,13.40
2019-05-20T12:19:45.163Z,13.40
2019-05-20T12:22:11.688Z,13.40
2019-05-20T12:24:38.270Z,13.40
2019-05-20T12:27:04.766Z,13.50
2019-05-20T12:29:31.292Z,13.40
2019-05-20T12:31:57.947Z,13.40
2019-05-20T12:34:24.706Z,13.50
2019-05-20T12:36:51.237Z,13.50
2019-05-20T12:39:17.794Z,13.50
2019-05-20T12:41:44.308Z,13.50
2019-05-20T12:44:13.112Z,13.50
2019-05-20T12:46:39.280Z,13.50
2019-05-20T12:49:05.929Z,13.50
2019-05-20T12:51:32.614Z,13.50
2019-05-20T12:53:59.144Z,13.50
2019-05-20T12:56:25.726Z,13.50
2019-05-20T12:58:52.404Z,13.50
2019-05-20T13:01:18.935Z,13.50
2019-05-20T13:03:45.534Z,13.50
2019-05-20T13:06:12.180Z,13.50
2019-05-20T13:08:38.793Z,13.50
2019-05-20T13:11:05.409Z,13.50
2019-05-20T13:13:32.015Z,13.60
2019-05-20T13:15:58.544Z,13.60
2019-05-20T13:18:25.082Z,13.70
2019-05-20T13:20:51.619Z,13.70
2019-05-20T13:23:18.151Z,13.80
2019-05-20T13:25:44.686Z,13.90
2019-05-20T13:28:11.268Z,13.90
2019-05-20T13:30:37.918Z,13.80
2019-05-20T13:33:04.537Z,13.90
2019-05-20T13:35:31.131Z,13.90
2019-05-20T13:37:57.852Z,13.80
2019-05-20T13:40:24.403Z,13.80
2019-05-20T13:42:50.929Z,13.80
2019-05-20T13:45:17.672Z,13.80
2019-05-20T13:47:44.200Z,13.80
2019-05-20T13:50:11.129Z,13.80
2019-05-20T13:52:37.661Z,13.90
2019-05-20T13:55:04.996Z,13.90
2019-05-20T13:57:31.547Z,13.90
2019-05-20T13:59:58.122Z,13.90
2019-05-20T14:02:24.670Z,13.90
2019-05-20T14:04:51.208Z,13.90
2019-05-20T14:07:17.765Z,13.90
2019-05-20T14:09:44.307Z,13.90
2019-05-20T14:12:10.854Z,13.90
2019-05-20T14:14:37.397Z,13.90
2019-05-20T14:17:03.940Z,14.00
2019-05-20T14:19:30.605Z,14.00
2019-05-20T14:21:57.161Z,14.00
2019-05-20T14:24:23.754Z,14.00
2019-05-20T14:26:50.297Z,14.10
2019-05-20T14:29:16.856Z,14.20
2019-05-20T14:31:43.412Z,14.40
2019-05-20T14:34:09.931Z,14.40
2019-05-20T14:36:39.788Z,14.50
2019-05-20T14:39:05.332Z,14.50
2019-05-20T14:41:31.888Z,14.60
2019-05-20T14:44:00.436Z,14.60
2019-05-20T14:46:27.686Z,14.60
2019-05-20T14:48:54.415Z,14.60
2019-05-20T14:51:21.049Z,14.60
2019-05-20T14:53:47.567Z,14.70
2019-05-20T14:56:14.101Z,14.80
2019-05-20T14:58:40.612Z,14.80
2019-05-20T15:01:07.218Z,14.80
2019-05-20T15:03:33.860Z,14.80
2019-05-20T15:06:00.359Z,14.80
2019-05-20T15:08:26.895Z,14.80
2019-05-20T15:10:53.443Z,14.70
2019-05-20T15:13:19.993Z,14.60
2019-05-20T15:15:48.597Z,14.60
2019-05-20T15:18:14.969Z,14.50
2019-05-20T15:20:41.504Z,14.50
2019-05-20T15:23:08.048Z,14.40
2019-05-20T15:25:34.706Z,14.40
2019-05-20T15:28:01.236Z,14.40
2019-05-20T15:30:27.774Z,14.30
2019-05-20T15:32:55.023Z,14.30
2019-05-20T15:35:21.686Z,14.40
2019-05-20T15:37:48.292Z,14.40
2019-05-20T15:40:16.838Z,14.50
2019-05-20T15:42:43.379Z,14.60
2019-05-20T15:45:10.404Z,14.70
2019-05-20T15:47:37.051Z,14.70
2019-05-20T15:50:05.952Z,14.70
2019-05-20T15:52:32.498Z,14.70
2019-05-20T15:54:59.043Z,14.70
2019-05-20T15:57:25.585Z,14.70
2019-05-20T15:59:54.258Z,14.60
2019-05-20T16:02:20.792Z,14.50
2019-05-20T16:04:47.316Z,14.40
2019-05-20T16:07:13.900Z,14.40
2019-05-20T16:09:40.469Z,14.30
2019-05-20T16:12:07.035Z,14.20
2019-05-20T16:14:34.879Z,14.10
2019-05-20T16:17:01.453Z,14.10
2019-05-20T16:19:28.071Z,14.00
2019-05-20T16:21:54.624Z,13.90
2019-05-20T16:24:21.152Z,13.90
2019-05-20T16:26:47.687Z,13.90
2019-05-20T16:29:15.239Z,13.80
2019-05-20T16:31:41.779Z,13.80
2019-05-20T16:34:08.306Z,13.80
2019-05-20T16:36:34.870Z,13.80
2019-05-20T16:39:01.492Z,13.80
2019-05-20T16:41:28.133Z,13.80
2019-05-20T16:43:54.646Z,13.70
2019-05-20T16:46:21.178Z,13.70
2019-05-20T16:48:47.807Z,13.70
2019-05-20T16:51:14.354Z,13.70
2019-05-20T16:53:40.912Z,13.60
2019-05-20T16:56:07.444Z,13.60
2019-05-20T16:58:35.087Z,13.70
2019-05-20T17:01:01.610Z,13.60
2019-05-20T17:03:28.143Z,13.60
2019-05-20T17:05:54.663Z,13.50
2019-05-20T17:08:21.247Z,13.50
2019-05-20T17:10:47.771Z,13.40
2019-05-20T17:13:14.302Z,13.40
2019-05-20T17:15:40.881Z,13.40
2019-05-20T17:18:07.485Z,13.40
2019-05-20T17:20:34.012Z,13.40
2019-05-20T17:23:00.551Z,13.40
2019-05-20T17:25:27.093Z,13.40
2019-05-20T17:27:53.632Z,13.40
2019-05-20T17:30:20.168Z,13.40
2019-05-20T17:32:46.730Z,13.30
2019-05-20T17:35:13.461Z,13.30
2019-05-20T17:37:39.986Z,13.30
2019-05-20T17:40:07.646Z,13.30
2019-05-20T17:42:34.186Z,13.30
2019-05-20T17:45:00.819Z,13.30
2019-05-20T17:47:27.363Z,13.30
2019-05-20T17:49:53.890Z,13.30
2019-05-20T17:52:20.415Z,13.30
2019-05-20T17:54:46.948Z,13.30
2019-05-20T17:57:13.461Z,13.20
2019-05-20T17:59:39.999Z,13.20
2019-05-20T18:02:08.423Z,13.20
2019-05-20T18:04:34.970Z,13.20
2019-05-20T18:07:01.541Z,13.20
2019-05-20T18:09:29.993Z,13.20
2019-05-20T18:11:56.545Z,13.20
2019-05-20T18:14:23.069Z,13.10
2019-05-20T18:16:49.667Z,13.10
2019-05-20T18:19:16.232Z,13.10
2019-05-20T18:21:42.753Z,13.10
2019-05-20T18:24:09.289Z,13.10
2019-05-20T18:26:35.835Z,13.10
2019-05-20T18:29:02.345Z,13.10
2019-05-20T18:31:32.304Z,13.00
2019-05-20T18:33:57.378Z,13.10
2019-05-20T18:36:23.965Z,13.00
2019-05-20T18:38:50.491Z,13.10
2019-05-20T18:41:17.021Z,13.10
2019-05-20T18:43:43.558Z,13.10
2019-05-20T18:46:10.093Z,13.00
2019-05-20T18:48:36.705Z,13.10
2019-05-20T18:51:03.253Z,13.00
2019-05-20T18:53:29.790Z,13.00
2019-05-20T18:55:56.342Z,13.00
2019-05-20T18:58:22.888Z,13.00
2019-05-20T19:00:49.425Z,13.00
2019-05-20T19:03:16.039Z,13.00
2019-05-20T19:05:42.556Z,12.90
2019-05-20T19:08:09.322Z,12.90
2019-05-20T19:10:35.915Z,12.90
2019-05-20T19:13:02.870Z,12.90
2019-05-20T19:15:29.656Z,12.80
2019-05-20T19:17:56.210Z,12.80
2019-05-20T19:20:23.248Z,12.80
2019-05-20T19:22:49.945Z,12.70
2019-05-20T19:25:16.476Z,12.70
2019-05-20T19:27:43.046Z,12.60
2019-05-20T19:30:10.197Z,12.60
2019-05-20T19:32:36.827Z,12.60
2019-05-20T19:35:05.967Z,12.50
2019-05-20T19:37:32.495Z,12.50
2019-05-20T19:39:59.038Z,12.50
2019-05-20T19:42:25.558Z,12.60
2019-05-20T19:44:52.154Z,12.40
2019-05-20T19:47:18.746Z,12.40
2019-05-20T19:49:45.270Z,12.40
2019-05-20T19:52:11.780Z,12.40
2019-05-20T19:54:38.425Z,12.40
2019-05-20T19:57:06.864Z,12.30
2019-05-20T19:59:33.407Z,12.40
2019-05-20T20:02:00.004Z,12.30
2019-05-20T20:04:26.700Z,12.30
2019-05-20T20:06:53.242Z,12.30
2019-05-20T20:09:19.878Z,12.20
2019-05-20T20:11:46.412Z,12.20
2019-05-20T20:14:12.976Z,12.20
2019-05-20T20:16:39.508Z,12.20
2019-05-20T20:19:06.100Z,12.10
2019-05-20T20:21:32.658Z,12.10
2019-05-20T20:23:59.190Z,12.10
2019-05-20T20:26:25.727Z,12.10
2019-05-20T20:28:52.253Z,12.10
2019-05-20T20:31:18.791Z,12.10
2019-05-20T20:33:45.323Z,12.10
2019-05-20T20:36:11.909Z,12.10
2019-05-20T20:38:38.422Z,12.10
2019-05-20T20:41:04.967Z,12.10
2019-05-20T20:43:32.242Z,12.00
2019-05-20T20:45:58.939Z,12.00
2019-05-20T20:48:25.455Z,12.00
2019-05-20T20:50:52.113Z,12.00
2019-05-20T20:53:18.677Z,12.00
2019-05-20T20:55:45.226Z,12.00
2019-05-20T20:58:11.739Z,12.00
2019-05-20T21:00:38.310Z,11.90
2019-05-20T21:03:04.836Z,11.90
2019-05-20T21:05:31.365Z,11.90
2019-05-20T21:07:57.904Z,11.90
2019-05-20T21:10:25.300Z,11.90
2019-05-20T21:12:51.905Z,11.90
2019-05-20T21:15:18.426Z,11.90
2019-05-20T21:17:44.967Z,11.90
2019-05-20T21:20:11.605Z,11.90
2019-05-20T21:22:38.138Z,11.90
2019-05-20T21:25:05.489Z,11.90
2019-05-20T21:27:32.327Z,11.80
2019-05-20T21:29:58.900Z,11.80
2019-05-20T21:32:25.448Z,11.80
2019-05-20T21:34:52.056Z,11.80
2019-05-20T21:37:18.583Z,11.80
2019-05-20T21:39:45.205Z,11.80
2019-05-20T21:42:11.743Z,11.80
2019-05-20T21:44:38.279Z,11.80
2019-05-20T21:47:04.826Z,11.80
2019-05-20T21:49:31.349Z,11.80
2019-05-20T21:51:57.877Z,11.80
2019-05-20T21:54:24.390Z,11.80
2019-05-20T21:56:51.014Z,11.80
2019-05-20T21:59:17.553Z,11.80
2019-05-20T22:01:44.171Z,11.80
2019-05-20T22:04:10.684Z,11.80
2019-05-20T22:06:37.324Z,11.80
2019-05-20T22:09:04.926Z,11.80
2019-05-20T22:11:31.462Z,11.80
2019-05-20T22:13:57.976Z,11.80
2019-05-20T22:16:24.611Z,11.70
2019-05-20T22:18:51.167Z,11.70
2019-05-20T22:21:19.627Z,11.70
2019-05-20T22:23:48.072Z,11.70
2019-05-20T22:26:14.604Z,11.70
2019-05-20T22:28:41.123Z,11.60
2019-05-20T22:31:07.764Z,11.60
2019-05-20T22:33:41.599Z,11.50
2019-05-20T22:36:02.892Z,11.40
2019-05-20T22:38:29.422Z,11.40
2019-05-20T22:40:55.936Z,11.40
2019-05-20T22:43:22.611Z,11.30
2019-05-20T22:45:49.130Z,11.30
2019-05-20T22:48:15.768Z,11.30
2019-05-20T22:50:42.307Z,11.30
2019-05-20T22:53:08.945Z,11.20
2019-05-20T22:55:35.471Z,11.20
2019-05-20T22:58:02.103Z,11.20
2019-05-20T23:00:28.612Z,11.10
2019-05-20T23:02:55.160Z,11.20
2019-05-20T23:05:21.695Z,11.10
2019-05-20T23:07:48.311Z,11.10
2019-05-20T23:10:15.401Z,11.10
2019-05-20T23:12:41.929Z,11.10
2019-05-20T23:15:08.852Z,11.10
2019-05-20T23:17:35.435Z,11.10
2019-05-20T23:20:04.421Z,11.00
2019-05-20T23:22:30.959Z,11.00
2019-05-20T23:24:57.569Z,11.00
2019-05-20T23:27:24.091Z,11.00
2019-05-20T23:29:50.619Z,11.00
2019-05-20T23:32:17.189Z,10.90
2019-05-20T23:34:43.730Z,11.00
2019-05-20T23:37:10.340Z,10.90
2019-05-20T23:39:36.876Z,10.90
2019-05-20T23:42:03.390Z,10.90
2019-05-20T23:44:29.966Z,10.90
2019-05-20T23:46:56.477Z,10.90
2019-05-20T23:49:23.022Z,10.90
2019-05-20T23:51:49.751Z,10.90
2019-05-20T23:54:16.286Z,10.90
2019-05-20T23:56:42.808Z,10.80
2019-05-20T23:59:09.382Z,10.80
